AirNav   Everest Fuels
 
 1514 users online  

MU90 Falcon Heliport
Lee's Summit, Missouri, USA

GOING TO LEE'S SUMMIT?


FAA INFORMATION EFFECTIVE 02 JANUARY 2020

Location

FAA Identifier: MU90
Lat/Long: 38-57-25.0240N 094-22-35.8210W
38-57.417067N 094-22.597017W
38.9569511,-94.3766169
(estimated)
Elevation: 971 ft. / 296 m (estimated)
Variation: 05E (1990)
From city: 3 miles N of LEES SUMMIT, MO
Time zone: UTC -6 (UTC -5 during Daylight Saving Time)
Zip code: 64064

Heliport Operations

Heliport use: Private use. Permission required prior to landing
Activation date: 10/1991
Control tower: no
ARTCC: KANSAS CITY CENTER
FSS: COLUMBIA FLIGHT SERVICE STATION
Attendance: MON-FRI 0830-1700
Segmented circle: no
Lights: FOR PERIMETER LGTS CALL 816-525-5722.

Heliport Communications

WX ASOS at LXT (0.3 nm NE): 124.175 (816-347-9807)
WX ASOS at MKC (14 nm NW): PHONE 816-329-2843
WX ASOS at OJC (18 nm W): PHONE 913-780-6969

Nearby radio navigation aids

VOR radial/distance  VOR name  Freq  Var
ANXr227/14.2NAPOLEON VORTAC114.0007E
MCIr135/25.9KANSAS CITY VORTAC113.2505E

Heliport Services

Runway Information

Helipad H1

Dimensions: 80 x 70 ft. / 24 x 21 m
Surface: concrete
Runway edge lights: PERI
Latitude: 38-57.417067N
Longitude: 094-22.597017W
Elevation: 971.0 ft.
Traffic pattern: leftleft

Heliport Ownership and Management from official FAA records

Ownership: Privately-owned
Owner: FALCON HELICOPTER INC
2451 N E DOUGLAS
LEE SUMMIT, MO 64064
Phone 816-525-5723
Manager: BOB SCHLOTZHAUER
12907 MEADOWLARK
LEE SUMMIT, MO 64063
Phone 816-525-5722

Additional Remarks

FOR CD CTC KANSAS CITY APCH AT 816-329-2710.

Instrument Procedures

There are no published instrument procedures at MU90.

Some nearby airports with instrument procedures:

KLXT - Lee's Summit Municipal Airport (0 nm NE)
3GV - East Kansas City Airport (8 nm NE)
KMKC - Charles B Wheeler Downtown Airport (14 nm NW)
KOJC - Johnson County Executive Airport (18 nm W)
KLRY - Lawrence Smith Memorial Airport (21 nm S)
 
Loc | Ops | Rwys | IFR | FBO | Links
Com | Nav | Svcs | Stats | Notes

Kansas City Aviation Department
 
Area around MU90 (Falcon Heliport)
 
Road maps at: MapQuest Bing Google
 
Aerial photo
No photo
 
Sectional chart

 
Airport distance calculator
Flying to Falcon Heliport? Find the distance to fly.

From to MU90

Sunrise and sunset
Times for 23-Jan-2020
 Local
(UTC-6)
 Zulu
(UTC)
Morning civil twilight07:0313:03
Sunrise07:3213:32
Sunset17:2723:27
Evening civil twilight17:5623:56

Current date and time
Zulu (UTC)  23-Jan-2020 23:14:27
Local (UTC-6)  23-Jan-2020 17:14:27
 
METAR
KLXT 232303Z AUTO 35004KT 2 1/2SM BR BKN005 OVC010 02/01 A2984 RMK AO2 T00220011
KMKC 
14nm NW 
232254Z 30005KT 2SM BR OVC006 02/01 A2985 RMK AO2 SLP114 T00220011
KOJC 
18nm W 
232253Z 31004KT 1 3/4SM BR OVC004 01/01 A2984 RMK AO2 CIG 003V008 SLP113 T00110011
TAF
KMKC 
14nm NW 
231850Z 2319/2418 VRB04KT 6SM -RASN BR OVC006 TEMPO 2319/2321 1SM BR OVC003 FM232100 33005KT 5SM -RASN BR OVC007 FM240000 01004KT 1SM -SN BR OVC004 TEMPO 2401/2405 1/2SM SN VV003 FM240800 35008KT 3SM -SN BR OVC008
NOTAMs
Click for the latest NOTAMs
NOTAMs are issued by the DoD/FAA and will open in a separate window not controlled by AirNav.

 

 
 

Would you like to see your business listed on this page?

 If your business provides an interesting product or service to pilots, flight crews, aircraft, or users of the Falcon Heliport, you should consider listing it here.  To start the listing process, click on the button below
 
Add a business
 

Other Pages about Falcon Heliport

Update a link
 
Copyright © AirNav, LLC. All rights reserved. Privacy Policy  Contact